Time;durP1;ratioP1;P1;durP2;ratioP2;P2;SDS_P1;SDS_P2;PMS_P1;PMS_P2;Temp;Humidity;BMP_temperature;BMP_pressure;BME280_temperature;BME280_humidity;BME280_pressure;Samples;Min_cycle;Max_cycle;Signal;HPM_P1;HPM_P2
2022/01/16 00:00:15;;;;;;;3.33;2.00;;;-1.90;92.60;;;;;;5052604;28;20017;-83
2022/01/16 00:05:23;;;;;;;4.07;2.35;;;-1.90;92.60;;;;;;5055160;28;20051;-85
2022/01/16 00:07:49;;;;;;;1.75;1.58;;;-1.90;92.70;;;;;;5058781;28;20029;-86
2022/01/16 00:10:17;;;;;;;3.13;2.10;;;-1.90;92.60;;;;;;5072973;28;20457;-86
2022/01/16 00:12:48;;;;;;;3.95;1.92;;;-1.90;92.60;;;;;;5076814;28;20039;-83
2022/01/16 00:15:14;;;;;;;2.92;2.25;;;-1.90;92.90;;;;;;5071928;28;20024;-82
2022/01/16 00:17:51;;;;;;;2.47;1.83;;;-1.90;92.60;;;;;;5073251;28;20603;-84
2022/01/16 00:20:17;;;;;;;;;;;-1.90;92.70;;;;;;5058935;28;20035;-83
2022/01/16 00:22:45;;;;;;;3.35;1.58;;;-2.00;92.70;;;;;;5057065;28;20003;-85
2022/01/16 00:25:11;;;;;;;;;;;-2.00;92.80;;;;;;5057677;28;20103;-84
2022/01/16 00:27:37;;;;;;;3.15;2.00;;;-2.00;92.80;;;;;;5058147;28;20018;-85
2022/01/16 00:30:03;;;;;;;3.50;1.77;;;-1.90;92.80;;;;;;5069295;28;20005;-86
2022/01/16 00:32:29;;;;;;;3.17;1.92;;;-1.90;92.90;;;;;;5057298;28;20098;-86
2022/01/16 00:34:56;;;;;;;3.65;1.92;;;-1.90;93.00;;;;;;5044195;28;20021;-88
2022/01/16 00:37:23;;;;;;;3.88;2.25;;;-1.80;93.00;;;;;;5064342;28;20132;-90
2022/01/16 00:39:50;;;;;;;4.05;1.67;;;-1.90;93.10;;;;;;5069853;28;20025;-88
2022/01/16 00:42:19;;;;;;;3.63;2.30;;;-1.90;93.00;;;;;;5068590;28;20424;-88
2022/01/16 00:44:48;;;;;;;3.72;1.83;;;-1.80;93.10;;;;;;5052199;28;20029;-90
2022/01/16 00:47:14;;;;;;;3.90;2.15;;;-1.90;93.10;;;;;;5054427;28;20104;-88
2022/01/16 00:49:41;;;;;;;3.75;1.98;;;-1.80;93.10;;;;;;5050694;28;20028;-89
2022/01/16 00:52:07;;;;;;;8.88;5.30;;;-1.80;93.00;;;;;;5065622;28;20028;-88
2022/01/16 00:54:33;;;;;;;2.60;1.55;;;-1.70;93.10;;;;;;5072681;28;20038;-86
2022/01/16 00:56:59;;;;;;;2.88;2.08;;;-1.70;92.80;;;;;;5050038;28;20404;-87
2022/01/16 00:59:25;;;;;;;4.85;1.55;;;-1.70;92.70;;;;;;5064363;28;20040;-87
2022/01/16 01:01:51;;;;;;;3.63;1.98;;;-1.80;92.50;;;;;;5064804;28;20035;-88
2022/01/16 01:04:17;;;;;;;2.08;1.83;;;-1.80;92.50;;;;;;5056347;28;20031;-89
2022/01/16 01:06:45;;;;;;;2.90;1.77;;;-1.80;92.60;;;;;;5061976;28;20017;-91
2022/01/16 01:09:11;;;;;;;3.85;1.88;;;-1.80;92.80;;;;;;5067136;28;20029;-90
2022/01/16 01:11:38;;;;;;;3.38;1.75;;;-1.80;92.50;;;;;;5079074;28;20044;-86
2022/01/16 01:16:49;;;;;;;4.97;2.05;;;-1.70;92.60;;;;;;5065127;28;20025;-88
2022/01/16 01:19:16;;;;;;;4.10;2.38;;;-1.70;92.60;;;;;;5049354;28;20129;-87
2022/01/16 01:21:42;;;;;;;3.63;1.93;;;-1.70;92.40;;;;;;5059816;28;20079;-88
2022/01/16 01:24:07;;;;;;;2.15;1.45;;;-1.60;92.30;;;;;;5062069;28;20417;-90
2022/01/16 01:26:36;;;;;;;4.47;2.33;;;-1.60;92.20;;;;;;5050348;28;20029;-90
2022/01/16 01:29:03;;;;;;;7.10;2.70;;;-1.70;92.20;;;;;;5054810;28;20044;-87
2022/01/16 01:31:30;;;;;;;2.40;1.50;;;-1.70;92.00;;;;;;5039802;28;20044;-89
2022/01/16 01:33:56;;;;;;;2.75;2.13;;;-1.70;92.00;;;;;;5038911;28;20184;-87
2022/01/16 01:36:23;;;;;;;4.43;2.67;;;-1.70;92.00;;;;;;5021212;28;20025;-90
2022/01/16 01:38:49;;;;;;;2.53;1.23;;;-1.70;91.90;;;;;;5020953;28;20478;-88
2022/01/16 01:41:15;;;;;;;2.17;1.05;;;-1.70;91.90;;;;;;5021028;28;20056;-90
2022/01/16 01:51:44;;;;;;;2.67;2.28;;;-1.60;91.90;;;;;;5050106;28;20437;-91
2022/01/16 01:54:12;;;;;;;3.05;1.60;;;-1.60;91.80;;;;;;5050661;28;20033;-88
2022/01/16 01:56:39;;;;;;;2.40;1.40;;;-1.60;91.70;;;;;;5047655;28;20100;-89
2022/01/16 01:59:08;;;;;;;4.13;2.05;;;-1.60;91.60;;;;;;5037314;28;20041;-90
2022/01/16 02:01:34;;;;;;;4.30;1.35;;;-1.60;91.60;;;;;;5058770;28;20049;-90
2022/01/16 02:04:00;;;;;;;4.70;1.63;;;-1.60;91.40;;;;;;5021582;28;20029;-89
2022/01/16 02:06:27;;;;;;;3.38;1.50;;;-1.60;91.20;;;;;;5052341;28;20041;-88
2022/01/16 02:08:56;;;;;;;3.83;2.03;;;-1.60;91.20;;;;;;5026088;28;20033;-89
2022/01/16 02:11:28;;;;;;;1.80;1.50;;;-1.70;91.20;;;;;;5061644;28;20151;-92
2022/01/16 02:14:04;;;;;;;2.63;1.92;;;-1.70;90.90;;;;;;5043648;28;20029;-89
2022/01/16 02:35:45;;;;;;;3.63;2.20;;;-2.00;90.70;;;;;;5037060;28;20604;-86
2022/01/16 02:38:12;;;;;;;4.03;2.17;;;-2.10;90.70;;;;;;5012830;28;20031;-89
2022/01/16 02:40:43;;;;;;;3.75;2.22;;;-2.10;90.80;;;;;;4997113;28;20038;-88
2022/01/16 02:43:09;;;;;;;3.85;1.67;;;-2.10;90.80;;;;;;4996810;28;20105;-86
2022/01/16 02:45:37;;;;;;;2.28;1.52;;;-2.10;90.80;;;;;;4994781;28;20427;-86
2022/01/16 02:48:06;;;;;;;2.30;1.40;;;-2.00;90.80;;;;;;4995770;28;20105;-86
2022/01/16 02:50:34;;;;;;;3.20;2.03;;;-2.00;90.60;;;;;;4995102;28;20474;-89
2022/01/16 02:53:00;;;;;;;4.22;1.48;;;-2.00;90.70;;;;;;4996023;28;20041;-87
2022/01/16 02:55:26;;;;;;;2.83;1.67;;;-2.00;90.70;;;;;;5007974;28;20026;-86
2022/01/16 02:57:55;;;;;;;3.22;2.05;;;-2.00;90.80;;;;;;5005384;28;20073;-88
2022/01/16 03:00:22;;;;;;;6.75;1.58;;;-2.00;90.80;;;;;;4995960;28;20022;-88
2022/01/16 03:02:49;;;;;;;2.25;0.95;;;-2.00;90.70;;;;;;4997080;28;20034;-86
2022/01/16 03:05:15;;;;;;;2.70;1.50;;;-2.00;90.30;;;;;;5008667;28;20030;-86
2022/01/16 03:07:42;;;;;;;3.40;1.65;;;-2.10;90.30;;;;;;5009432;28;20042;-87
2022/01/16 03:12:40;;;;;;;3.88;2.25;;;-2.10;90.10;;;;;;5046517;28;20057;-87
2022/01/16 03:15:07;;;;;;;3.40;1.65;;;-2.10;90.00;;;;;;5052825;28;20033;-85
2022/01/16 03:21:52;;;;;;;4.27;1.70;;;-2.10;90.00;;;;;;5056792;28;20089;-88
2022/01/16 03:23:12;;;;;;;5.00;2.03;;;-2.30;89.20;;;;;;5056437;28;20039;-87
2022/01/16 03:25:39;;;;;;;3.63;1.95;;;-2.30;89.50;;;;;;5039495;28;20083;-88
2022/01/16 03:28:05;;;;;;;4.28;1.65;;;-2.40;89.70;;;;;;5055800;28;20064;-88
2022/01/16 03:30:31;;;;;;;4.05;2.40;;;-2.40;89.60;;;;;;5056344;28;20036;-87
2022/01/16 03:32:57;;;;;;;2.20;1.83;;;-2.40;89.80;;;;;;5055866;28;20449;-86
2022/01/16 03:35:23;;;;;;;3.47;1.77;;;-2.40;89.80;;;;;;5038440;28;20478;-88
2022/01/16 03:37:49;;;;;;;3.33;2.22;;;-2.30;89.90;;;;;;5056441;28;20037;-88
2022/01/16 03:40:16;;;;;;;4.65;2.25;;;-2.30;90.00;;;;;;5055809;28;20188;-87
2022/01/16 03:42:42;;;;;;;2.80;2.25;;;-2.30;90.00;;;;;;5055631;28;20032;-90
2022/01/16 03:45:09;;;;;;;3.10;1.70;;;-2.30;90.00;;;;;;5055966;28;20135;-86
2022/01/16 03:47:35;;;;;;;4.10;2.38;;;-2.30;90.10;;;;;;5046141;28;20037;-87
2022/01/16 03:50:03;;;;;;;4.60;2.63;;;-2.20;90.20;;;;;;5067561;28;20033;-86
2022/01/16 03:52:28;;;;;;;;;;;-2.20;90.20;;;;;;5076739;28;20044;-87
2022/01/16 03:54:54;;;;;;;3.95;1.95;;;-2.20;90.20;;;;;;5073630;28;20230;-87
2022/01/16 03:57:20;;;;;;;3.92;1.98;;;-2.30;90.10;;;;;;5077740;28;20009;-86
2022/01/16 03:59:46;;;;;;;4.78;1.52;;;-2.30;90.10;;;;;;5077457;28;20025;-87
2022/01/16 04:02:12;;;;;;;2.60;1.42;;;-2.30;90.20;;;;;;5060022;28;20078;-85
2022/01/16 04:04:38;;;;;;;3.05;1.80;;;-2.30;90.00;;;;;;5056288;28;20021;-86
2022/01/16 04:07:05;;;;;;;3.58;2.20;;;-2.30;90.10;;;;;;5055230;28;20021;-83
2022/01/16 04:09:31;;;;;;;;;;;-2.20;90.10;;;;;;5058711;28;20035;-86
2022/01/16 04:11:59;;;;;;;6.57;1.98;;;-2.30;90.10;;;;;;5060350;28;19905;-86
2022/01/16 04:17:21;;;;;;;1.40;1.02;;;-2.20;90.00;;;;;;5054423;28;20032;-83
2022/01/16 04:19:48;;;;;;;4.30;1.55;;;-2.20;90.10;;;;;;5053709;28;20036;-84
2022/01/16 04:22:15;;;;;;;1.90;1.20;;;-2.30;90.00;;;;;;5053562;28;20371;-84
2022/01/16 04:24:41;;;;;;;6.70;1.75;;;-2.20;90.20;;;;;;5052389;28;20017;-85
2022/01/16 04:27:10;;;;;;;3.10;1.13;;;-2.30;90.20;;;;;;5059269;28;20420;-85
2022/01/16 04:29:36;;;;;;;3.60;1.30;;;-2.30;90.30;;;;;;5073197;28;20044;-86
2022/01/16 04:32:03;;;;;;;3.90;1.73;;;-2.30;90.20;;;;;;5073245;28;20032;-87
2022/01/16 04:34:30;;;;;;;7.18;1.92;;;-2.30;90.20;;;;;;5073930;28;20149;-86
2022/01/16 04:36:57;;;;;;;2.47;1.42;;;-2.30;90.20;;;;;;5060137;28;20506;-87
2022/01/16 04:39:31;;;;;;;1.92;1.17;;;-2.30;90.10;;;;;;5033946;28;20433;-86
2022/01/16 04:44:41;;;;;;;2.10;1.20;;;-2.30;89.60;;;;;;5047199;28;20024;-83
2022/01/16 04:47:07;;;;;;;2.97;1.58;;;-2.30;89.80;;;;;;5067878;28;20025;-85
2022/01/16 04:49:33;;;;;;;1.23;0.77;;;-2.30;90.10;;;;;;5067413;28;20029;-85
2022/01/16 04:51:59;;;;;;;1.50;1.17;;;-2.40;89.90;;;;;;5066705;28;20074;-86
2022/01/16 04:54:25;;;;;;;1.55;1.20;;;-2.30;89.90;;;;;;5067427;28;20017;-85
2022/01/16 04:56:51;;;;;;;5.55;2.17;;;-2.40;89.70;;;;;;5058826;28;20048;-87
2022/01/16 04:59:18;;;;;;;2.22;1.33;;;-2.30;89.80;;;;;;5067686;28;20035;-86
2022/01/16 05:01:43;;;;;;;2.50;1.33;;;-2.30;89.60;;;;;;5061903;28;20031;-87
2022/01/16 05:04:11;;;;;;;2.33;1.25;;;-2.40;89.10;;;;;;5059065;28;20021;-86
2022/01/16 05:06:38;;;;;;;2.20;1.58;;;-2.30;89.20;;;;;;5057722;28;20056;-88
2022/01/16 05:09:04;;;;;;;2.10;0.98;;;-2.30;89.20;;;;;;5056927;28;20075;-85
2022/01/16 05:11:30;;;;;;;1.45;1.00;;;-2.30;89.10;;;;;;5070320;28;20005;-86
2022/01/16 05:19:02;;;;;;;2.88;1.58;;;-2.40;88.80;;;;;;5068678;28;20067;-87
2022/01/16 05:21:27;;;;;;;2.42;1.38;;;-2.40;89.20;;;;;;5061674;28;20045;-87
2022/01/16 05:23:53;;;;;;;2.67;1.23;;;-2.40;89.40;;;;;;5058982;28;20029;-86
2022/01/16 05:26:26;;;;;;;3.10;1.60;;;-2.40;89.40;;;;;;5067326;28;20100;-86
2022/01/16 05:28:54;;;;;;;1.25;0.93;;;-2.40;89.50;;;;;;5047312;28;20033;-87
2022/01/16 05:31:20;;;;;;;1.83;0.88;;;-2.40;89.40;;;;;;5062080;28;20151;-88
2022/01/16 05:33:45;;;;;;;3.78;1.63;;;-2.40;89.20;;;;;;5043743;28;20080;-88
2022/01/16 05:36:11;;;;;;;1.92;1.23;;;-2.40;88.60;;;;;;5048945;28;20024;-89
2022/01/16 05:38:37;;;;;;;0.90;0.65;;;-2.40;88.40;;;;;;5046283;28;20028;-90
2022/01/16 05:41:05;;;;;;;1.63;1.15;;;-2.50;88.40;;;;;;5061393;28;20021;-90
2022/01/16 05:43:32;;;;;;;3.10;1.17;;;-2.50;88.60;;;;;;5060513;28;20021;-87
2022/01/16 05:45:58;;;;;;;1.90;1.10;;;-2.50;88.70;;;;;;5060198;28;20025;-87
2022/01/16 05:48:26;;;;;;;1.88;1.33;;;-2.50;88.90;;;;;;5056782;28;20094;-88
2022/01/16 05:50:51;;;;;;;;;;;-2.50;88.60;;;;;;5060407;28;20039;-88
2022/01/16 05:53:17;;;;;;;0.75;0.60;;;-2.50;88.30;;;;;;5065216;28;19999;-88
2022/01/16 05:55:43;;;;;;;1.50;0.93;;;-2.50;88.30;;;;;;5076269;28;20009;-81
2022/01/16 05:58:09;;;;;;;2.08;1.30;;;-2.50;88.10;;;;;;5062116;28;20036;-90
2022/01/16 06:00:37;;;;;;;1.77;1.15;;;-2.50;88.10;;;;;;5053605;28;20033;-88
2022/01/16 06:03:04;;;;;;;1.52;0.80;;;-2.50;87.90;;;;;;5079869;28;20093;-86
2022/01/16 06:05:30;;;;;;;1.20;0.93;;;-2.50;87.80;;;;;;5079591;28;20032;-83
2022/01/16 06:08:01;;;;;;;1.05;0.90;;;-2.50;86.90;;;;;;5079480;28;20285;-90
2022/01/16 06:10:27;;;;;;;1.73;0.90;;;-2.50;87.30;;;;;;5037960;28;20041;-88
2022/01/16 06:12:53;;;;;;;1.10;0.88;;;-2.50;87.60;;;;;;5073640;28;20009;-89
2022/01/16 06:15:23;;;;;;;3.08;1.20;;;-2.40;87.90;;;;;;5060887;28;20092;-91
2022/01/16 06:17:50;;;;;;;3.10;1.45;;;-2.40;88.20;;;;;;5062291;28;20097;-88
2022/01/16 06:20:16;;;;;;;1.75;1.00;;;-2.40;88.40;;;;;;5042665;28;20485;-89
2022/01/16 06:22:46;;;;;;;2.92;1.63;;;-2.40;88.50;;;;;;5060834;28;20033;-86
2022/01/16 06:25:13;;;;;;;2.88;1.98;;;-2.40;87.80;;;;;;5043681;28;20083;-86
2022/01/16 06:27:39;;;;;;;1.30;1.00;;;-2.40;87.20;;;;;;5056427;28;20056;-85
2022/01/16 06:30:08;;;;;;;1.67;1.00;;;-2.50;86.20;;;;;;5057287;28;20822;-89
2022/01/16 06:32:34;;;;;;;1.25;1.08;;;-2.50;86.60;;;;;;5056199;28;20662;-84
2022/01/16 06:34:59;;;;;;;1.35;0.93;;;-2.50;87.10;;;;;;5055004;28;20021;-86
2022/01/16 06:37:25;;;;;;;1.42;1.15;;;-2.50;87.30;;;;;;5054950;28;20082;-88
2022/01/16 06:39:51;;;;;;;3.25;1.30;;;-2.50;87.40;;;;;;5037465;28;20029;-84
2022/01/16 06:42:17;;;;;;;3.05;1.95;;;-2.50;87.50;;;;;;5056499;28;20047;-86
2022/01/16 06:44:46;;;;;;;1.40;0.90;;;-2.40;87.50;;;;;;5056846;28;20029;-88
2022/01/16 06:47:12;;;;;;;1.38;1.00;;;-2.40;87.50;;;;;;5039482;28;20028;-86
2022/01/16 06:49:37;;;;;;;2.13;1.20;;;-2.40;87.60;;;;;;5036651;28;20053;-86
2022/01/16 06:52:04;;;;;;;2.10;1.17;;;-2.40;87.60;;;;;;5061342;28;20024;-92
2022/01/16 06:54:31;;;;;;;2.15;1.25;;;-2.40;87.30;;;;;;5076374;28;20070;-89
2022/01/16 06:56:57;;;;;;;2.40;1.10;;;-2.40;87.60;;;;;;5063247;28;20029;-86
2022/01/16 06:59:24;;;;;;;1.20;0.80;;;-2.40;87.70;;;;;;5055617;28;20091;-86
2022/01/16 07:01:50;;;;;;;1.98;1.23;;;-2.40;87.70;;;;;;5057306;28;20029;-87
2022/01/16 07:04:17;;;;;;;2.65;1.08;;;-2.40;87.40;;;;;;5057577;28;20040;-88
2022/01/16 07:06:43;;;;;;;2.28;1.00;;;-2.40;87.40;;;;;;5059237;28;20104;-89
2022/01/16 07:09:09;;;;;;;3.63;1.00;;;-2.40;87.50;;;;;;5067074;28;20048;-88
2022/01/16 07:11:34;;;;;;;1.38;0.82;;;-2.40;87.80;;;;;;5057900;28;20033;-86
2022/01/16 07:14:02;;;;;;;2.90;1.33;;;-2.40;87.50;;;;;;5057550;28;20036;-87
2022/01/16 07:16:27;;;;;;;2.05;1.33;;;-2.40;87.00;;;;;;5054111;28;20061;-85
2022/01/16 07:18:53;;;;;;;3.92;2.30;;;-2.40;87.00;;;;;;5057290;28;20032;-87
2022/01/16 07:21:19;;;;;;;3.50;1.02;;;-2.40;87.10;;;;;;5057086;28;20041;-87
2022/01/16 07:23:46;;;;;;;0.80;0.68;;;-2.40;87.00;;;;;;5058354;28;20502;-88
2022/01/16 07:26:16;;;;;;;2.00;1.20;;;-2.40;86.90;;;;;;5055926;28;20025;-87
2022/01/16 07:28:42;;;;;;;1.40;1.30;;;-2.50;86.50;;;;;;5037994;28;20037;-90
2022/01/16 07:31:07;;;;;;;2.40;1.33;;;-2.50;85.70;;;;;;5053786;28;20025;-87
2022/01/16 07:33:33;;;;;;;2.08;1.15;;;-2.40;85.60;;;;;;5058113;28;20039;-87
2022/01/16 07:35:59;;;;;;;1.65;1.20;;;-2.50;85.70;;;;;;5057535;28;20092;-84
2022/01/16 07:38:25;;;;;;;2.40;1.55;;;-2.40;86.20;;;;;;5054378;28;20025;-84
2022/01/16 07:40:52;;;;;;;1.63;1.20;;;-2.40;86.20;;;;;;5057172;28;20541;-86
2022/01/16 07:43:18;;;;;;;1.95;0.88;;;-2.40;86.90;;;;;;5042111;28;20034;-86
2022/01/16 07:45:44;;;;;;;2.88;0.80;;;-2.30;85.80;;;;;;5045844;28;20033;-86
2022/01/16 07:48:10;;;;;;;2.60;1.00;;;-2.40;85.30;;;;;;5047736;28;20420;-87
2022/01/16 07:50:37;;;;;;;1.08;0.90;;;-2.40;85.60;;;;;;5035593;28;20132;-86
2022/01/16 07:53:05;;;;;;;1.33;1.23;;;-2.40;85.80;;;;;;5037314;28;20025;-90
2022/01/16 07:55:31;;;;;;;;;;;-2.40;86.30;;;;;;5043636;28;20132;-88
2022/01/16 07:57:57;;;;;;;1.90;1.13;;;-2.30;86.50;;;;;;5040891;28;19948;-88
2022/01/16 08:00:25;;;;;;;3.63;1.10;;;-2.30;86.10;;;;;;5061017;28;20028;-87
2022/01/16 08:02:52;;;;;;;2.67;1.00;;;-2.20;86.30;;;;;;5057016;28;20044;-89
2022/01/16 08:05:19;;;;;;;6.28;1.98;;;-2.20;86.50;;;;;;5058875;28;20017;-89
2022/01/16 08:07:45;;;;;;;1.40;0.93;;;-2.20;86.60;;;;;;5041147;28;20136;-90
2022/01/16 08:10:13;;;;;;;1.40;0.80;;;-2.20;85.70;;;;;;5019752;28;20022;-90
2022/01/16 08:12:39;;;;;;;0.80;0.68;;;-2.10;85.90;;;;;;4984272;28;20074;-88
2022/01/16 08:15:07;;;;;;;0.93;0.75;;;-2.10;85.70;;;;;;4986509;28;20035;-87
2022/01/16 08:17:35;;;;;;;;;;;-2.10;85.30;;;;;;4975650;28;20091;-86
2022/01/16 08:20:03;;;;;;;1.65;0.88;;;-2.10;85.20;;;;;;4964486;29;19985;-86
2022/01/16 08:22:29;;;;;;;;;;;-2.10;84.20;;;;;;4971709;28;20078;-89
2022/01/16 08:24:54;;;;;;;1.17;1.00;;;-2.10;84.60;;;;;;4974717;28;19936;-88
2022/01/16 08:27:20;;;;;;;1.75;0.90;;;-2.20;84.80;;;;;;4979240;28;20039;-87
2022/01/16 08:29:46;;;;;;;2.08;1.30;;;-2.10;85.50;;;;;;4986217;28;20047;-89
2022/01/16 08:32:12;;;;;;;1.17;0.63;;;-2.10;85.30;;;;;;4985644;28;20062;-88
2022/01/16 08:34:37;;;;;;;1.00;0.75;;;-2.10;85.10;;;;;;4980857;28;20022;-87
2022/01/16 08:37:04;;;;;;;1.15;0.75;;;-2.10;84.80;;;;;;4989201;28;20022;-88
2022/01/16 08:39:30;;;;;;;1.92;0.90;;;-2.00;85.10;;;;;;4981746;28;20053;-87
2022/01/16 08:41:55;;;;;;;3.45;0.95;;;-2.00;85.30;;;;;;5001499;28;20089;-90
2022/01/16 08:44:21;;;;;;;1.48;0.93;;;-1.90;84.80;;;;;;5055117;28;20485;-87
2022/01/16 08:46:48;;;;;;;0.65;0.50;;;-2.00;84.60;;;;;;5074886;28;20039;-88
2022/01/16 08:49:14;;;;;;;0.80;0.68;;;-2.00;84.40;;;;;;5069100;28;20035;-89
2022/01/16 08:51:40;;;;;;;1.80;0.80;;;-2.00;84.00;;;;;;5062210;28;20470;-89
2022/01/16 08:54:06;;;;;;;1.33;0.70;;;-2.00;84.20;;;;;;5047811;28;20025;-89
2022/01/16 08:56:34;;;;;;;0.80;0.70;;;-1.90;84.20;;;;;;5057162;28;20033;-88
2022/01/16 08:58:59;;;;;;;1.33;0.80;;;-2.00;83.20;;;;;;5064174;28;20074;-89
2022/01/16 09:01:26;;;;;;;0.90;0.88;;;-2.00;82.60;;;;;;5038773;28;20033;-89
2022/01/16 09:03:52;;;;;;;1.25;0.90;;;-2.00;83.00;;;;;;5041128;28;20038;-87
2022/01/16 09:06:19;;;;;;;0.52;0.52;;;-2.10;83.20;;;;;;5050196;28;20080;-90
2022/01/16 09:08:45;;;;;;;0.80;0.60;;;-2.10;83.40;;;;;;5020344;28;20041;-89
2022/01/16 09:11:11;;;;;;;0.77;0.50;;;-2.00;83.70;;;;;;5036192;28;20048;-88
2022/01/16 09:13:45;;;;;;;1.88;1.00;;;-2.00;83.30;;;;;;5052222;28;20068;-93
2022/01/16 09:16:12;;;;;;;2.38;1.58;;;-2.00;83.50;;;;;;5053910;28;20141;-91
2022/01/16 09:18:40;;;;;;;4.50;1.20;;;-1.90;83.40;;;;;;5076596;28;20017;-87
2022/01/16 09:21:08;;;;;;;1.95;1.15;;;-1.90;83.40;;;;;;5075653;28;20087;-89
2022/01/16 09:23:35;;;;;;;0.80;0.70;;;-1.80;83.50;;;;;;5060807;28;20013;-86
2022/01/16 09:26:02;;;;;;;1.60;1.00;;;-1.70;83.50;;;;;;5073684;28;20039;-91
2022/01/16 09:28:27;;;;;;;1.38;0.98;;;-1.70;83.20;;;;;;5050021;28;20514;-91
2022/01/16 09:30:55;;;;;;;1.20;1.10;;;-1.60;83.40;;;;;;5046271;28;20037;-90
2022/01/16 09:33:21;;;;;;;3.05;0.90;;;-1.50;83.40;;;;;;5066072;28;20492;-88
2022/01/16 09:35:47;;;;;;;2.25;1.35;;;-1.20;84.20;;;;;;5072869;28;20017;-90
2022/01/16 09:38:14;;;;;;;1.77;1.05;;;-0.90;81.70;;;;;;5075329;28;20071;-89
2022/01/16 09:40:44;;;;;;;3.35;1.10;;;-0.70;81.20;;;;;;5064370;28;20094;-90
2022/01/16 09:43:10;;;;;;;2.05;1.00;;;-0.80;80.30;;;;;;5067799;28;20029;-91
2022/01/16 09:45:36;;;;;;;2.33;1.33;;;-1.00;80.50;;;;;;5068098;28;20046;-92
2022/01/16 09:48:03;;;;;;;3.47;1.50;;;-1.00;80.70;;;;;;5055909;28;20041;-92
2022/01/16 09:50:29;;;;;;;1.23;1.10;;;-1.00;80.40;;;;;;5058634;28;20108;-90
2022/01/16 09:52:55;;;;;;;2.28;1.30;;;-1.20;80.40;;;;;;5067676;28;20513;-90
2022/01/16 09:55:28;;;;;;;3.67;1.60;;;-1.20;80.90;;;;;;5049458;28;20032;-93
2022/01/16 09:57:56;;;;;;;3.63;0.95;;;-1.30;80.50;;;;;;5027484;28;20033;-91
2022/01/16 10:00:26;;;;;;;1.85;1.67;;;-1.30;80.70;;;;;;4972409;28;20034;-90
2022/01/16 10:02:53;;;;;;;3.70;1.90;;;-1.30;80.70;;;;;;4983742;28;20043;-90
2022/01/16 10:05:26;;;;;;;3.17;1.50;;;-1.20;81.00;;;;;;4986017;28;20050;-90
2022/01/16 10:07:55;;;;;;;2.40;1.60;;;-1.10;81.00;;;;;;4979996;28;20042;-90
2022/01/16 10:10:26;;;;;;;2.55;1.60;;;-1.10;81.20;;;;;;4981383;28;20027;-84
2022/01/16 10:12:55;;;;;;;3.35;2.30;;;-0.90;81.20;;;;;;4988825;28;20038;-83
2022/01/16 10:15:22;;;;;;;2.33;1.80;;;-0.90;81.10;;;;;;4990741;28;20055;-90
2022/01/16 10:17:53;;;;;;;4.72;2.50;;;-0.90;81.00;;;;;;4968289;28;20031;-89
2022/01/16 10:20:19;;;;;;;2.92;1.67;;;-0.90;81.40;;;;;;4981312;28;20075;-88
2022/01/16 10:22:54;;;;;;;3.80;1.90;;;-0.90;81.60;;;;;;4969286;28;20035;-90
2022/01/16 10:25:43;;;;;;;3.60;1.85;;;-0.90;81.90;;;;;;4977562;28;20042;-91
2022/01/16 10:28:17;;;;;;;4.35;2.45;;;-0.90;82.30;;;;;;4968241;28;20053;-89
2022/01/16 10:30:49;;;;;;;4.00;2.60;;;-0.90;83.10;;;;;;5004331;28;20010;-90
2022/01/16 10:33:21;;;;;;;3.70;2.20;;;-0.90;83.70;;;;;;5021776;28;20026;-89
2022/01/16 10:35:50;;;;;;;5.18;2.58;;;-0.80;84.00;;;;;;5021524;28;20021;-91
2022/01/16 10:38:22;;;;;;;3.13;2.10;;;-0.80;84.00;;;;;;5037848;28;20031;-89
2022/01/16 10:40:52;;;;;;;4.50;2.13;;;-0.80;84.00;;;;;;5048965;28;20052;-89
2022/01/16 10:43:49;;;;;;;1.92;1.48;;;-0.70;84.50;;;;;;5060816;28;20042;-88
2022/01/16 10:46:15;;;;;;;;;;;-0.60;84.60;;;;;;5021191;28;20040;-86
2022/01/16 10:48:42;;;;;;;6.80;3.47;;;-0.60;84.50;;;;;;5030875;28;20003;-86
2022/01/16 10:51:26;;;;;;;6.85;2.35;;;-0.60;84.60;;;;;;5028784;28;20262;-88
2022/01/16 10:53:52;;;;;;;3.65;2.35;;;-0.50;85.00;;;;;;5042789;28;20461;-88
2022/01/16 10:56:29;;;;;;;2.00;1.65;;;-0.50;85.00;;;;;;5048673;28;20125;-86
2022/01/16 10:58:56;;;;;;;7.05;2.78;;;-0.40;85.00;;;;;;5050092;28;20127;-86
2022/01/16 11:01:23;;;;;;;2.85;1.75;;;-0.40;85.00;;;;;;5040750;28;20398;-87
2022/01/16 11:03:51;;;;;;;3.45;2.22;;;-0.30;85.20;;;;;;5024462;28;20045;-85
2022/01/16 11:06:21;;;;;;;4.70;2.53;;;-0.30;85.00;;;;;;5029525;28;20052;-87
2022/01/16 11:08:52;;;;;;;2.50;1.65;;;-0.10;85.10;;;;;;5043635;28;20037;-87
2022/01/16 11:11:21;;;;;;;4.65;2.10;;;-0.10;84.40;;;;;;5064743;28;20012;-89
2022/01/16 11:13:48;;;;;;;2.65;2.03;;;-0.10;84.30;;;;;;5050774;28;20029;-89
2022/01/16 11:16:15;;;;;;;2.42;2.00;;;-0.20;84.10;;;;;;5060716;28;20071;-90
2022/01/16 11:18:52;;;;;;;2.50;1.90;;;-0.30;84.30;;;;;;5065675;28;20507;-92
2022/01/16 11:21:30;;;;;;;5.55;3.13;;;-0.40;84.60;;;;;;5044806;28;20049;-90
2022/01/16 11:24:22;;;;;;;2.45;1.70;;;-0.50;84.90;;;;;;5045438;28;20546;-90
2022/01/16 11:26:49;;;;;;;3.17;2.30;;;-0.50;85.40;;;;;;5059702;28;20429;-90
2022/01/16 11:29:15;;;;;;;3.97;2.95;;;-0.50;85.70;;;;;;5056935;28;20041;-90
2022/01/16 11:31:43;;;;;;;7.78;5.53;;;-0.50;85.80;;;;;;5052958;28;20021;-87
2022/01/16 11:34:11;;;;;;;11.23;5.38;;;-0.50;86.10;;;;;;5071515;28;20028;-91
2022/01/16 11:36:40;;;;;;;5.00;2.50;;;-0.60;86.30;;;;;;5063800;28;20032;-88
2022/01/16 11:39:07;;;;;;;6.55;3.63;;;-0.50;86.20;;;;;;5067056;28;20017;-86
2022/01/16 11:41:46;;;;;;;8.60;4.77;;;-0.50;86.20;;;;;;5056633;28;20022;-87
2022/01/16 11:44:32;;;;;;;3.95;2.25;;;-0.50;86.10;;;;;;5037616;28;20079;-89
2022/01/16 11:47:01;;;;;;;4.30;2.33;;;-0.50;86.00;;;;;;5042908;28;20030;-88
2022/01/16 11:49:42;;;;;;;5.53;2.15;;;-0.50;85.90;;;;;;5065193;28;20061;-89
2022/01/16 11:52:15;;;;;;;5.68;2.53;;;-0.50;85.70;;;;;;5052510;28;20021;-87
2022/01/16 11:54:49;;;;;;;4.10;2.38;;;-0.40;85.80;;;;;;5057109;28;20040;-90
2022/01/16 11:57:27;;;;;;;3.50;2.45;;;-0.40;85.60;;;;;;5057154;28;20065;-89
2022/01/16 12:00:15;;;;;;;6.88;2.58;;;-0.30;85.30;;;;;;5060234;28;20039;-86
2022/01/16 12:02:52;;;;;;;3.03;2.28;;;-0.30;85.00;;;;;;5058784;28;20041;-86
2022/01/16 12:05:28;;;;;;;4.20;2.30;;;-0.40;84.50;;;;;;5055732;28;20441;-84
2022/01/16 12:07:57;;;;;;;5.22;1.85;;;-0.40;84.80;;;;;;5070309;28;20033;-86
2022/01/16 12:10:45;;;;;;;2.10;1.52;;;-0.40;84.50;;;;;;5054719;28;20029;-82
2022/01/16 12:13:46;;;;;;;2.58;2.10;;;-0.40;84.30;;;;;;5060711;28;20013;-89
2022/01/16 12:16:35;;;;;;;2.72;1.98;;;-0.50;84.60;;;;;;5057513;28;20029;-89
2022/01/16 12:19:33;;;;;;;4.30;2.95;;;-0.50;84.50;;;;;;5040703;28;20036;-89
2022/01/16 12:21:59;;;;;;;4.63;2.78;;;-0.50;84.80;;;;;;5028846;28;20049;-89
2022/01/16 12:24:35;;;;;;;5.68;2.85;;;-0.50;85.00;;;;;;5042042;28;20029;-86
2022/01/16 12:27:38;;;;;;;2.35;2.08;;;-0.50;84.80;;;;;;5035499;28;20021;-87
2022/01/16 12:30:26;;;;;;;5.30;2.90;;;-0.50;84.90;;;;;;5038301;28;20079;-87
2022/01/16 12:32:56;;;;;;;4.45;1.70;;;-0.50;84.80;;;;;;5047754;28;20083;-86
2022/01/16 12:35:46;;;;;;;4.38;2.55;;;-0.50;84.90;;;;;;5053329;28;20029;-87
2022/01/16 12:38:20;;;;;;;4.53;2.40;;;-0.50;85.10;;;;;;5055235;28;20117;-88
2022/01/16 12:40:58;;;;;;;8.23;2.83;;;-0.50;85.20;;;;;;5045835;28;20014;-86
2022/01/16 12:43:29;;;;;;;2.88;1.73;;;-0.50;85.20;;;;;;5059221;28;20020;-90
2022/01/16 12:45:55;;;;;;;5.75;3.38;;;-0.50;84.90;;;;;;5040589;28;20060;-87
2022/01/16 12:48:22;;;;;;;11.50;5.18;;;-0.50;84.90;;;;;;5057428;28;20037;-88
2022/01/16 12:50:57;;;;;;;8.10;4.72;;;-0.50;85.30;;;;;;5055095;28;20099;-89
2022/01/16 12:53:33;;;;;;;6.38;3.15;;;-0.50;85.20;;;;;;5039508;28;20145;-88
2022/01/16 12:56:14;;;;;;;7.25;3.38;;;-0.50;85.30;;;;;;5018038;28;20025;-89
2022/01/16 12:58:39;;;;;;;5.40;3.40;;;-0.50;85.50;;;;;;5035952;28;20021;-87
2022/01/16 13:01:06;;;;;;;3.88;2.78;;;-0.50;85.60;;;;;;5036551;28;20482;-88
2022/01/16 13:03:36;;;;;;;3.33;2.00;;;-0.50;85.70;;;;;;5023282;28;20022;-91
2022/01/16 13:06:22;;;;;;;3.22;2.10;;;-0.50;85.50;;;;;;5024825;28;20025;-85
2022/01/16 13:09:06;;;;;;;3.95;2.17;;;-0.70;85.40;;;;;;5017441;28;20072;-89
2022/01/16 13:11:39;;;;;;;2.92;1.95;;;-0.80;85.70;;;;;;5019269;28;20029;-86
2022/01/16 13:14:14;;;;;;;5.57;2.55;;;-0.90;85.90;;;;;;5048605;28;20036;-85
2022/01/16 13:16:44;;;;;;;4.20;2.60;;;-1.00;86.00;;;;;;5053047;28;20034;-88
2022/01/16 13:19:22;;;;;;;3.90;2.17;;;-1.10;86.00;;;;;;5049833;28;20009;-89
2022/01/16 13:24:49;;;;;;;3.87;1.93;;;-1.10;86.00;;;;;;5069754;28;20037;-87
2022/01/16 13:27:51;;;;;;;3.08;1.88;;;-1.20;86.00;;;;;;5042982;28;20070;-85
2022/01/16 13:30:26;;;;;;;9.30;4.50;;;-1.20;86.10;;;;;;4957887;29;20043;-88
2022/01/16 13:32:52;;;;;;;4.95;2.30;;;-1.20;86.30;;;;;;4959932;29;20035;-86
2022/01/16 13:35:18;;;;;;;4.20;2.20;;;-1.20;86.30;;;;;;4961910;29;20063;-87
2022/01/16 13:37:44;;;;;;;6.47;2.05;;;-1.20;86.30;;;;;;4947041;28;20043;-88
2022/01/16 13:40:16;;;;;;;3.83;1.92;;;-1.30;86.40;;;;;;4960490;28;20066;-88
2022/01/16 13:45:19;;;;;;;2.60;1.95;;;-1.30;86.60;;;;;;4984993;28;20043;-90
2022/01/16 13:47:51;;;;;;;6.90;2.60;;;-1.30;86.40;;;;;;4969062;29;20043;-90
2022/01/16 13:50:17;;;;;;;2.50;1.65;;;-1.30;86.20;;;;;;4963777;29;20046;-89